sensor_id;sensor_type;location;lat;lon;timestamp;P1;durP1;ratioP1;P2;durP2;ratioP2
45136;SDS011;30894;51.740;19.498;2022-09-03T00:02:18;8.00;;;2.10;;
45136;SDS011;30894;51.740;19.498;2022-09-03T00:05:05;5.35;;;2.65;;
45136;SDS011;30894;51.740;19.498;2022-09-03T00:10:50;5.30;;;2.33;;
45136;SDS011;30894;51.740;19.498;2022-09-03T00:13:32;3.35;;;1.45;;
45136;SDS011;30894;51.740;19.498;2022-09-03T00:16:03;3.85;;;2.15;;
45136;SDS011;30894;51.740;19.498;2022-09-03T00:18:34;2.78;;;1.73;;
45136;SDS011;30894;51.740;19.498;2022-09-03T00:21:16;2.22;;;1.48;;
45136;SDS011;30894;51.740;19.498;2022-09-03T00:24:06;2.67;;;1.58;;
45136;SDS011;30894;51.740;19.498;2022-09-03T00:26:38;5.35;;;1.67;;
45136;SDS011;30894;51.740;19.498;2022-09-03T00:31:45;2.67;;;1.73;;
45136;SDS011;30894;51.740;19.498;2022-09-03T00:34:20;3.92;;;1.92;;
45136;SDS011;30894;51.740;19.498;2022-09-03T00:36:54;3.63;;;2.13;;
45136;SDS011;30894;51.740;19.498;2022-09-03T00:39:22;5.35;;;2.10;;
45136;SDS011;30894;51.740;19.498;2022-09-03T00:41:57;4.32;;;1.88;;
45136;SDS011;30894;51.740;19.498;2022-09-03T00:45:06;6.10;;;2.10;;
45136;SDS011;30894;51.740;19.498;2022-09-03T00:54:11;3.45;;;1.73;;
45136;SDS011;30894;51.740;19.498;2022-09-03T00:57:14;4.25;;;1.83;;
45136;SDS011;30894;51.740;19.498;2022-09-03T00:59:56;4.25;;;1.65;;
45136;SDS011;30894;51.740;19.498;2022-09-03T01:02:57;5.97;;;1.70;;
45136;SDS011;30894;51.740;19.498;2022-09-03T01:05:37;5.32;;;2.17;;
45136;SDS011;30894;51.740;19.498;2022-09-03T01:08:34;5.82;;;2.10;;
45136;SDS011;30894;51.740;19.498;2022-09-03T01:11:32;3.95;;;1.73;;
45136;SDS011;30894;51.740;19.498;2022-09-03T01:20:35;3.72;;;1.73;;
45136;SDS011;30894;51.740;19.498;2022-09-03T01:26:15;5.07;;;1.90;;
45136;SDS011;30894;51.740;19.498;2022-09-03T01:38:20;5.03;;;1.70;;
45136;SDS011;30894;51.740;19.498;2022-09-03T01:41:03;2.97;;;1.48;;
45136;SDS011;30894;51.740;19.498;2022-09-03T01:44:41;3.80;;;1.80;;
45136;SDS011;30894;51.740;19.498;2022-09-03T01:59:32;2.28;;;1.70;;
45136;SDS011;30894;51.740;19.498;2022-09-03T02:02:12;2.78;;;1.60;;
45136;SDS011;30894;51.740;19.498;2022-09-03T02:04:56;3.78;;;1.98;;
45136;SDS011;30894;51.740;19.498;2022-09-03T02:07:35;5.53;;;2.05;;
45136;SDS011;30894;51.740;19.498;2022-09-03T02:10:19;2.17;;;1.63;;
45136;SDS011;30894;51.740;19.498;2022-09-03T02:15:39;1.90;;;1.48;;
45136;SDS011;30894;51.740;19.498;2022-09-03T02:18:15;4.55;;;1.80;;
45136;SDS011;30894;51.740;19.498;2022-09-03T02:21:10;5.32;;;2.20;;
45136;SDS011;30894;51.740;19.498;2022-09-03T02:23:49;3.78;;;1.52;;
45136;SDS011;30894;51.740;19.498;2022-09-03T02:26:17;1.92;;;1.70;;
45136;SDS011;30894;51.740;19.498;2022-09-03T02:28:46;3.50;;;1.40;;
45136;SDS011;30894;51.740;19.498;2022-09-03T02:31:14;4.50;;;1.90;;
45136;SDS011;30894;51.740;19.498;2022-09-03T02:33:42;2.00;;;1.70;;
45136;SDS011;30894;51.740;19.498;2022-09-03T02:36:13;1.48;;;1.27;;
45136;SDS011;30894;51.740;19.498;2022-09-03T02:38:43;2.85;;;1.80;;
45136;SDS011;30894;51.740;19.498;2022-09-03T02:41:10;3.72;;;1.38;;
45136;SDS011;30894;51.740;19.498;2022-09-03T02:43:47;3.53;;;1.80;;
45136;SDS011;30894;51.740;19.498;2022-09-03T02:46:34;4.25;;;2.13;;
45136;SDS011;30894;51.740;19.498;2022-09-03T02:49:10;4.35;;;1.85;;
45136;SDS011;30894;51.740;19.498;2022-09-03T02:51:37;7.85;;;1.70;;
45136;SDS011;30894;51.740;19.498;2022-09-03T02:54:06;2.30;;;1.55;;
45136;SDS011;30894;51.740;19.498;2022-09-03T02:56:34;3.00;;;1.48;;
45136;SDS011;30894;51.740;19.498;2022-09-03T02:59:02;2.10;;;1.42;;
45136;SDS011;30894;51.740;19.498;2022-09-03T03:01:29;5.45;;;1.45;;
45136;SDS011;30894;51.740;19.498;2022-09-03T03:03:55;3.40;;;1.80;;
45136;SDS011;30894;51.740;19.498;2022-09-03T03:06:21;4.57;;;1.75;;
45136;SDS011;30894;51.740;19.498;2022-09-03T03:08:48;5.25;;;1.67;;
45136;SDS011;30894;51.740;19.498;2022-09-03T03:11:15;1.80;;;1.02;;
45136;SDS011;30894;51.740;19.498;2022-09-03T03:13:43;7.82;;;2.05;;
45136;SDS011;30894;51.740;19.498;2022-09-03T03:16:10;2.67;;;1.65;;
45136;SDS011;30894;51.740;19.498;2022-09-03T03:18:38;3.55;;;2.00;;
45136;SDS011;30894;51.740;19.498;2022-09-03T03:21:05;4.43;;;1.40;;
45136;SDS011;30894;51.740;19.498;2022-09-03T03:23:34;3.58;;;1.85;;
45136;SDS011;30894;51.740;19.498;2022-09-03T03:26:02;4.50;;;1.80;;
45136;SDS011;30894;51.740;19.498;2022-09-03T03:28:30;6.82;;;2.00;;
45136;SDS011;30894;51.740;19.498;2022-09-03T03:30:58;7.57;;;2.22;;
45136;SDS011;30894;51.740;19.498;2022-09-03T03:33:39;3.50;;;1.67;;
45136;SDS011;30894;51.740;19.498;2022-09-03T03:36:06;3.75;;;2.10;;
45136;SDS011;30894;51.740;19.498;2022-09-03T03:38:37;4.25;;;2.13;;
45136;SDS011;30894;51.740;19.498;2022-09-03T03:41:15;5.60;;;2.22;;
45136;SDS011;30894;51.740;19.498;2022-09-03T03:43:46;3.75;;;1.77;;
45136;SDS011;30894;51.740;19.498;2022-09-03T03:46:17;7.38;;;2.15;;
45136;SDS011;30894;51.740;19.498;2022-09-03T03:48:46;2.78;;;1.75;;
45136;SDS011;30894;51.740;19.498;2022-09-03T03:51:13;3.50;;;1.65;;
45136;SDS011;30894;51.740;19.498;2022-09-03T03:53:40;3.28;;;2.08;;
45136;SDS011;30894;51.740;19.498;2022-09-03T03:56:07;6.22;;;1.98;;
45136;SDS011;30894;51.740;19.498;2022-09-03T03:58:35;2.83;;;1.95;;
45136;SDS011;30894;51.740;19.498;2022-09-03T04:01:04;3.03;;;1.33;;
45136;SDS011;30894;51.740;19.498;2022-09-03T04:03:32;3.58;;;1.90;;
45136;SDS011;30894;51.740;19.498;2022-09-03T04:05:59;3.45;;;1.50;;
45136;SDS011;30894;51.740;19.498;2022-09-03T04:08:27;7.82;;;2.25;;
45136;SDS011;30894;51.740;19.498;2022-09-03T04:10:53;2.28;;;1.52;;
45136;SDS011;30894;51.740;19.498;2022-09-03T04:13:27;4.18;;;1.73;;
45136;SDS011;30894;51.740;19.498;2022-09-03T04:16:01;2.25;;;1.42;;
45136;SDS011;30894;51.740;19.498;2022-09-03T04:18:36;4.57;;;1.52;;
45136;SDS011;30894;51.740;19.498;2022-09-03T04:21:05;2.35;;;1.42;;
45136;SDS011;30894;51.740;19.498;2022-09-03T04:23:36;3.10;;;1.48;;
45136;SDS011;30894;51.740;19.498;2022-09-03T04:26:04;1.92;;;1.50;;
45136;SDS011;30894;51.740;19.498;2022-09-03T04:28:32;3.35;;;1.45;;
45136;SDS011;30894;51.740;19.498;2022-09-03T04:30:59;3.92;;;1.75;;
45136;SDS011;30894;51.740;19.498;2022-09-03T04:33:30;1.90;;;1.27;;
45136;SDS011;30894;51.740;19.498;2022-09-03T04:36:31;1.80;;;1.50;;
45136;SDS011;30894;51.740;19.498;2022-09-03T04:38:53;2.20;;;1.17;;
45136;SDS011;30894;51.740;19.498;2022-09-03T04:41:21;2.80;;;1.60;;
45136;SDS011;30894;51.740;19.498;2022-09-03T04:43:50;3.40;;;1.65;;
45136;SDS011;30894;51.740;19.498;2022-09-03T04:46:18;2.53;;;1.48;;
45136;SDS011;30894;51.740;19.498;2022-09-03T04:48:47;2.67;;;1.63;;
45136;SDS011;30894;51.740;19.498;2022-09-03T04:51:16;3.53;;;1.90;;
45136;SDS011;30894;51.740;19.498;2022-09-03T04:53:52;6.85;;;1.63;;
45136;SDS011;30894;51.740;19.498;2022-09-03T04:56:22;2.80;;;1.55;;
45136;SDS011;30894;51.740;19.498;2022-09-03T04:58:53;2.95;;;1.70;;
45136;SDS011;30894;51.740;19.498;2022-09-03T05:01:23;5.82;;;1.50;;
45136;SDS011;30894;51.740;19.498;2022-09-03T05:03:52;3.08;;;1.50;;
45136;SDS011;30894;51.740;19.498;2022-09-03T05:06:19;6.45;;;1.70;;
45136;SDS011;30894;51.740;19.498;2022-09-03T05:08:48;2.05;;;1.40;;
45136;SDS011;30894;51.740;19.498;2022-09-03T05:11:16;3.90;;;1.35;;
45136;SDS011;30894;51.740;19.498;2022-09-03T05:13:42;2.47;;;1.65;;
45136;SDS011;30894;51.740;19.498;2022-09-03T05:16:13;10.75;;;1.92;;
45136;SDS011;30894;51.740;19.498;2022-09-03T05:18:40;2.72;;;1.25;;
45136;SDS011;30894;51.740;19.498;2022-09-03T05:21:07;2.90;;;1.42;;
45136;SDS011;30894;51.740;19.498;2022-09-03T05:23:37;3.83;;;1.48;;
45136;SDS011;30894;51.740;19.498;2022-09-03T05:26:10;2.88;;;1.65;;
45136;SDS011;30894;51.740;19.498;2022-09-03T05:28:44;4.38;;;2.00;;
45136;SDS011;30894;51.740;19.498;2022-09-03T05:31:12;3.30;;;1.67;;
45136;SDS011;30894;51.740;19.498;2022-09-03T05:33:44;3.10;;;1.58;;
45136;SDS011;30894;51.740;19.498;2022-09-03T05:36:20;5.65;;;2.47;;
45136;SDS011;30894;51.740;19.498;2022-09-03T05:38:49;6.05;;;2.47;;
45136;SDS011;30894;51.740;19.498;2022-09-03T05:41:15;6.90;;;2.97;;
45136;SDS011;30894;51.740;19.498;2022-09-03T05:43:43;9.35;;;3.00;;
45136;SDS011;30894;51.740;19.498;2022-09-03T05:46:10;5.97;;;2.72;;
45136;SDS011;30894;51.740;19.498;2022-09-03T05:48:41;4.43;;;2.35;;
45136;SDS011;30894;51.740;19.498;2022-09-03T05:51:08;4.00;;;1.98;;
45136;SDS011;30894;51.740;19.498;2022-09-03T05:53:38;5.30;;;1.80;;
45136;SDS011;30894;51.740;19.498;2022-09-03T05:56:06;3.65;;;1.50;;
45136;SDS011;30894;51.740;19.498;2022-09-03T05:58:41;2.83;;;1.42;;
45136;SDS011;30894;51.740;19.498;2022-09-03T06:01:10;2.22;;;1.50;;
45136;SDS011;30894;51.740;19.498;2022-09-03T06:03:57;3.00;;;1.50;;
45136;SDS011;30894;51.740;19.498;2022-09-03T06:06:33;14.23;;;2.10;;
45136;SDS011;30894;51.740;19.498;2022-09-03T06:09:03;3.05;;;1.55;;
45136;SDS011;30894;51.740;19.498;2022-09-03T06:11:36;2.92;;;1.63;;
45136;SDS011;30894;51.740;19.498;2022-09-03T06:14:04;3.53;;;1.67;;
45136;SDS011;30894;51.740;19.498;2022-09-03T06:16:34;1.63;;;1.40;;
45136;SDS011;30894;51.740;19.498;2022-09-03T06:19:06;3.13;;;1.60;;
45136;SDS011;30894;51.740;19.498;2022-09-03T06:21:39;2.80;;;1.30;;
45136;SDS011;30894;51.740;19.498;2022-09-03T06:24:08;2.53;;;1.40;;
45136;SDS011;30894;51.740;19.498;2022-09-03T06:26:38;2.70;;;1.20;;
45136;SDS011;30894;51.740;19.498;2022-09-03T06:29:04;1.40;;;1.10;;
45136;SDS011;30894;51.740;19.498;2022-09-03T06:31:30;3.60;;;1.15;;
45136;SDS011;30894;51.740;19.498;2022-09-03T06:33:56;3.30;;;1.60;;
45136;SDS011;30894;51.740;19.498;2022-09-03T06:36:23;2.30;;;1.38;;
45136;SDS011;30894;51.740;19.498;2022-09-03T06:38:51;3.30;;;1.33;;
45136;SDS011;30894;51.740;19.498;2022-09-03T06:41:20;8.73;;;1.38;;
45136;SDS011;30894;51.740;19.498;2022-09-03T06:43:50;7.63;;;1.20;;
45136;SDS011;30894;51.740;19.498;2022-09-03T06:46:20;1.90;;;1.33;;
45136;SDS011;30894;51.740;19.498;2022-09-03T06:48:47;1.88;;;1.20;;
45136;SDS011;30894;51.740;19.498;2022-09-03T06:51:21;4.68;;;1.27;;
45136;SDS011;30894;51.740;19.498;2022-09-03T06:53:51;3.37;;;1.33;;
45136;SDS011;30894;51.740;19.498;2022-09-03T06:56:27;3.25;;;1.27;;
45136;SDS011;30894;51.740;19.498;2022-09-03T06:58:57;2.53;;;1.10;;
45136;SDS011;30894;51.740;19.498;2022-09-03T07:01:25;1.10;;;1.00;;
45136;SDS011;30894;51.740;19.498;2022-09-03T07:03:56;1.52;;;1.00;;
45136;SDS011;30894;51.740;19.498;2022-09-03T07:06:25;1.63;;;1.00;;
45136;SDS011;30894;51.740;19.498;2022-09-03T07:08:54;2.97;;;1.30;;
45136;SDS011;30894;51.740;19.498;2022-09-03T07:11:24;4.25;;;1.20;;
45136;SDS011;30894;51.740;19.498;2022-09-03T07:13:53;1.85;;;0.90;;
45136;SDS011;30894;51.740;19.498;2022-09-03T07:16:21;1.98;;;1.10;;
45136;SDS011;30894;51.740;19.498;2022-09-03T07:18:52;1.20;;;0.80;;
45136;SDS011;30894;51.740;19.498;2022-09-03T07:21:24;1.08;;;0.98;;
45136;SDS011;30894;51.740;19.498;2022-09-03T07:23:52;3.22;;;1.00;;
45136;SDS011;30894;51.740;19.498;2022-09-03T07:26:23;4.35;;;0.90;;
45136;SDS011;30894;51.740;19.498;2022-09-03T07:28:52;1.40;;;0.90;;
45136;SDS011;30894;51.740;19.498;2022-09-03T07:33:52;2.38;;;0.98;;
45136;SDS011;30894;51.740;19.498;2022-09-03T07:36:20;3.90;;;1.05;;
45136;SDS011;30894;51.740;19.498;2022-09-03T07:38:48;1.23;;;0.80;;
45136;SDS011;30894;51.740;19.498;2022-09-03T07:41:16;1.17;;;0.65;;
45136;SDS011;30894;51.740;19.498;2022-09-03T07:43:43;1.40;;;0.90;;
45136;SDS011;30894;51.740;19.498;2022-09-03T07:46:17;4.53;;;1.00;;
45136;SDS011;30894;51.740;19.498;2022-09-03T07:48:49;2.67;;;0.90;;
45136;SDS011;30894;51.740;19.498;2022-09-03T07:51:18;1.83;;;0.88;;
45136;SDS011;30894;51.740;19.498;2022-09-03T07:53:46;3.50;;;1.08;;
45136;SDS011;30894;51.740;19.498;2022-09-03T07:56:13;2.05;;;0.85;;
45136;SDS011;30894;51.740;19.498;2022-09-03T07:58:40;4.72;;;0.90;;
45136;SDS011;30894;51.740;19.498;2022-09-03T08:01:10;3.00;;;0.82;;
45136;SDS011;30894;51.740;19.498;2022-09-03T08:03:38;2.22;;;1.17;;
45136;SDS011;30894;51.740;19.498;2022-09-03T08:06:10;2.25;;;0.80;;
45136;SDS011;30894;51.740;19.498;2022-09-03T08:08:37;0.85;;;0.60;;
45136;SDS011;30894;51.740;19.498;2022-09-03T08:11:05;1.52;;;0.80;;
45136;SDS011;30894;51.740;19.498;2022-09-03T08:13:38;1.13;;;0.70;;
45136;SDS011;30894;51.740;19.498;2022-09-03T08:16:06;1.67;;;0.93;;
45136;SDS011;30894;51.740;19.498;2022-09-03T08:18:33;1.02;;;0.90;;
45136;SDS011;30894;51.740;19.498;2022-09-03T08:21:04;2.63;;;0.80;;
45136;SDS011;30894;51.740;19.498;2022-09-03T08:23:36;3.92;;;1.10;;
45136;SDS011;30894;51.740;19.498;2022-09-03T08:26:04;1.95;;;0.82;;
45136;SDS011;30894;51.740;19.498;2022-09-03T08:28:32;1.60;;;1.10;;
45136;SDS011;30894;51.740;19.498;2022-09-03T08:33:39;2.85;;;0.80;;
45136;SDS011;30894;51.740;19.498;2022-09-03T08:38:41;1.98;;;0.68;;
45136;SDS011;30894;51.740;19.498;2022-09-03T08:41:13;2.03;;;0.60;;
45136;SDS011;30894;51.740;19.498;2022-09-03T08:49:27;1.50;;;0.82;;
45136;SDS011;30894;51.740;19.498;2022-09-03T08:52:19;3.83;;;0.93;;
45136;SDS011;30894;51.740;19.498;2022-09-03T09:03:48;1.90;;;0.82;;
45136;SDS011;30894;51.740;19.498;2022-09-03T09:06:49;2.42;;;1.20;;
45136;SDS011;30894;51.740;19.498;2022-09-03T09:09:34;0.65;;;0.60;;
45136;SDS011;30894;51.740;19.498;2022-09-03T09:18:14;4.63;;;1.10;;
45136;SDS011;30894;51.740;19.498;2022-09-03T09:23:46;1.50;;;0.80;;
45136;SDS011;30894;51.740;19.498;2022-09-03T09:26:16;2.92;;;0.90;;
45136;SDS011;30894;51.740;19.498;2022-09-03T09:28:46;1.23;;;1.00;;
45136;SDS011;30894;51.740;19.498;2022-09-03T09:31:24;2.35;;;0.82;;
45136;SDS011;30894;51.740;19.498;2022-09-03T09:33:50;2.75;;;0.70;;
45136;SDS011;30894;51.740;19.498;2022-09-03T09:36:16;1.15;;;0.90;;
45136;SDS011;30894;51.740;19.498;2022-09-03T09:38:44;0.75;;;0.70;;
45136;SDS011;30894;51.740;19.498;2022-09-03T09:41:13;1.40;;;0.90;;
45136;SDS011;30894;51.740;19.498;2022-09-03T09:43:46;1.77;;;0.80;;
45136;SDS011;30894;51.740;19.498;2022-09-03T09:46:19;1.20;;;0.80;;
45136;SDS011;30894;51.740;19.498;2022-09-03T09:48:53;0.77;;;0.77;;
45136;SDS011;30894;51.740;19.498;2022-09-03T09:51:25;4.05;;;1.00;;
45136;SDS011;30894;51.740;19.498;2022-09-03T09:56:45;1.20;;;0.82;;
45136;SDS011;30894;51.740;19.498;2022-09-03T09:59:12;0.80;;;0.57;;
45136;SDS011;30894;51.740;19.498;2022-09-03T10:01:40;1.75;;;0.73;;
45136;SDS011;30894;51.740;19.498;2022-09-03T10:04:12;1.17;;;0.80;;
45136;SDS011;30894;51.740;19.498;2022-09-03T10:07:00;2.88;;;1.00;;
45136;SDS011;30894;51.740;19.498;2022-09-03T10:10:00;1.92;;;0.80;;
45136;SDS011;30894;51.740;19.498;2022-09-03T10:21:22;0.60;;;0.60;;
45136;SDS011;30894;51.740;19.498;2022-09-03T10:26:48;3.42;;;0.75;;
45136;SDS011;30894;51.740;19.498;2022-09-03T10:29:16;0.88;;;0.70;;
45136;SDS011;30894;51.740;19.498;2022-09-03T10:31:53;1.23;;;0.80;;
45136;SDS011;30894;51.740;19.498;2022-09-03T10:35:05;1.42;;;0.60;;
45136;SDS011;30894;51.740;19.498;2022-09-03T10:37:54;2.03;;;0.70;;
45136;SDS011;30894;51.740;19.498;2022-09-03T10:47:14;1.55;;;0.85;;
45136;SDS011;30894;51.740;19.498;2022-09-03T10:52:55;4.30;;;0.80;;
45136;SDS011;30894;51.740;19.498;2022-09-03T11:07:13;1.38;;;0.88;;
45136;SDS011;30894;51.740;19.498;2022-09-03T11:12:34;1.55;;;0.90;;
45136;SDS011;30894;51.740;19.498;2022-09-03T11:15:08;3.25;;;1.25;;
45136;SDS011;30894;51.740;19.498;2022-09-03T11:17:54;0.75;;;0.50;;
45136;SDS011;30894;51.740;19.498;2022-09-03T11:20:29;6.40;;;0.98;;
45136;SDS011;30894;51.740;19.498;2022-09-03T11:22:58;1.63;;;0.90;;
45136;SDS011;30894;51.740;19.498;2022-09-03T11:25:31;2.03;;;0.80;;
45136;SDS011;30894;51.740;19.498;2022-09-03T11:33:50;4.68;;;0.98;;
45136;SDS011;30894;51.740;19.498;2022-09-03T11:36:36;2.03;;;0.82;;
45136;SDS011;30894;51.740;19.498;2022-09-03T11:39:17;2.10;;;1.00;;
45136;SDS011;30894;51.740;19.498;2022-09-03T11:41:58;4.13;;;1.17;;
45136;SDS011;30894;51.740;19.498;2022-09-03T11:44:41;2.07;;;1.00;;
45136;SDS011;30894;51.740;19.498;2022-09-03T11:47:13;2.47;;;0.93;;
45136;SDS011;30894;51.740;19.498;2022-09-03T11:49:47;3.83;;;0.88;;
45136;SDS011;30894;51.740;19.498;2022-09-03T11:52:25;1.40;;;0.90;;
45136;SDS011;30894;51.740;19.498;2022-09-03T11:54:53;1.25;;;0.90;;
45136;SDS011;30894;51.740;19.498;2022-09-03T11:59:54;3.53;;;1.13;;
45136;SDS011;30894;51.740;19.498;2022-09-03T12:02:43;3.63;;;1.23;;
45136;SDS011;30894;51.740;19.498;2022-09-03T12:10:47;4.03;;;0.93;;
45136;SDS011;30894;51.740;19.498;2022-09-03T12:14:01;1.05;;;0.70;;
45136;SDS011;30894;51.740;19.498;2022-09-03T12:16:49;2.08;;;0.80;;
45136;SDS011;30894;51.740;19.498;2022-09-03T12:22:19;1.77;;;0.93;;
45136;SDS011;30894;51.740;19.498;2022-09-03T12:24:49;2.30;;;1.38;;
45136;SDS011;30894;51.740;19.498;2022-09-03T12:27:23;4.05;;;1.48;;
45136;SDS011;30894;51.740;19.498;2022-09-03T12:29:52;1.58;;;1.30;;
45136;SDS011;30894;51.740;19.498;2022-09-03T12:32:26;3.47;;;1.20;;
45136;SDS011;30894;51.740;19.498;2022-09-03T12:34:56;1.25;;;0.90;;
45136;SDS011;30894;51.740;19.498;2022-09-03T12:37:33;1.52;;;0.90;;
45136;SDS011;30894;51.740;19.498;2022-09-03T12:40:02;2.28;;;1.27;;
45136;SDS011;30894;51.740;19.498;2022-09-03T12:42:29;2.45;;;1.20;;
45136;SDS011;30894;51.740;19.498;2022-09-03T12:45:06;1.30;;;1.10;;
45136;SDS011;30894;51.740;19.498;2022-09-03T12:47:38;3.10;;;1.50;;
45136;SDS011;30894;51.740;19.498;2022-09-03T12:50:07;3.65;;;1.10;;
45136;SDS011;30894;51.740;19.498;2022-09-03T12:52:44;3.22;;;1.45;;
45136;SDS011;30894;51.740;19.498;2022-09-03T12:58:39;4.13;;;1.45;;
45136;SDS011;30894;51.740;19.498;2022-09-03T13:00:55;5.47;;;1.77;;
45136;SDS011;30894;51.740;19.498;2022-09-03T13:06:14;1.70;;;1.23;;
45136;SDS011;30894;51.740;19.498;2022-09-03T13:08:46;7.70;;;1.43;;
45136;SDS011;30894;51.740;19.498;2022-09-03T13:11:22;3.58;;;1.65;;
45136;SDS011;30894;51.740;19.498;2022-09-03T13:25:24;2.97;;;1.35;;
45136;SDS011;30894;51.740;19.498;2022-09-03T13:30:33;2.95;;;1.52;;
45136;SDS011;30894;51.740;19.498;2022-09-03T13:33:20;3.53;;;1.60;;
45136;SDS011;30894;51.740;19.498;2022-09-03T13:36:02;5.15;;;1.48;;
45136;SDS011;30894;51.740;19.498;2022-09-03T13:41:45;3.28;;;1.30;;
45136;SDS011;30894;51.740;19.498;2022-09-03T13:44:41;5.97;;;1.65;;
45136;SDS011;30894;51.740;19.498;2022-09-03T13:50:27;2.28;;;1.05;;
45136;SDS011;30894;51.740;19.498;2022-09-03T13:53:03;2.78;;;1.70;;
45136;SDS011;30894;51.740;19.498;2022-09-03T13:55:47;4.93;;;1.70;;
45136;SDS011;30894;51.740;19.498;2022-09-03T13:58:35;2.08;;;1.40;;
45136;SDS011;30894;51.740;19.498;2022-09-03T14:03:48;3.40;;;1.23;;
45136;SDS011;30894;51.740;19.498;2022-09-03T14:06:40;4.68;;;1.40;;
45136;SDS011;30894;51.740;19.498;2022-09-03T14:12:20;2.00;;;1.40;;
45136;SDS011;30894;51.740;19.498;2022-09-03T14:15:02;3.58;;;1.73;;
45136;SDS011;30894;51.740;19.498;2022-09-03T14:26:13;2.83;;;1.65;;
45136;SDS011;30894;51.740;19.498;2022-09-03T14:28:58;2.83;;;1.63;;
45136;SDS011;30894;51.740;19.498;2022-09-03T14:31:41;2.28;;;1.80;;
45136;SDS011;30894;51.740;19.498;2022-09-03T14:42:59;5.78;;;2.00;;
45136;SDS011;30894;51.740;19.498;2022-09-03T14:45:51;2.55;;;1.60;;
45136;SDS011;30894;51.740;19.498;2022-09-03T14:54:48;2.83;;;2.13;;
45136;SDS011;30894;51.740;19.498;2022-09-03T14:57:47;2.78;;;1.55;;
45136;SDS011;30894;51.740;19.498;2022-09-03T15:00:32;6.45;;;2.30;;
45136;SDS011;30894;51.740;19.498;2022-09-03T15:06:44;6.75;;;2.00;;
45136;SDS011;30894;51.740;19.498;2022-09-03T15:12:42;8.70;;;2.38;;
45136;SDS011;30894;51.740;19.498;2022-09-03T15:15:45;9.40;;;2.67;;
45136;SDS011;30894;51.740;19.498;2022-09-03T15:21:51;7.53;;;1.98;;
45136;SDS011;30894;51.740;19.498;2022-09-03T15:30:16;6.80;;;2.10;;
45136;SDS011;30894;51.740;19.498;2022-09-03T15:41:33;4.95;;;2.28;;
45136;SDS011;30894;51.740;19.498;2022-09-03T15:44:22;3.75;;;2.60;;
45136;SDS011;30894;51.740;19.498;2022-09-03T15:46:56;6.10;;;2.83;;
45136;SDS011;30894;51.740;19.498;2022-09-03T15:49:35;8.75;;;3.30;;
45136;SDS011;30894;51.740;19.498;2022-09-03T15:55:13;5.43;;;2.50;;
45136;SDS011;30894;51.740;19.498;2022-09-03T15:57:57;9.05;;;2.60;;
45136;SDS011;30894;51.740;19.498;2022-09-03T16:00:54;4.00;;;2.55;;
45136;SDS011;30894;51.740;19.498;2022-09-03T16:06:42;5.75;;;2.50;;
45136;SDS011;30894;51.740;19.498;2022-09-03T16:15:19;8.48;;;3.20;;
45136;SDS011;30894;51.740;19.498;2022-09-03T16:23:37;12.10;;;3.58;;
45136;SDS011;30894;51.740;19.498;2022-09-03T16:26:17;12.07;;;3.53;;
45136;SDS011;30894;51.740;19.498;2022-09-03T16:28:52;9.88;;;4.07;;
45136;SDS011;30894;51.740;19.498;2022-09-03T16:40:06;7.45;;;2.72;;
45136;SDS011;30894;51.740;19.498;2022-09-03T16:48:16;4.72;;;1.55;;
45136;SDS011;30894;51.740;19.498;2022-09-03T16:51:05;2.97;;;2.00;;
45136;SDS011;30894;51.740;19.498;2022-09-03T16:54:14;4.03;;;1.92;;
45136;SDS011;30894;51.740;19.498;2022-09-03T16:57:21;5.93;;;3.22;;
45136;SDS011;30894;51.740;19.498;2022-09-03T17:20:29;2.70;;;1.63;;
45136;SDS011;30894;51.740;19.498;2022-09-03T17:23:28;4.18;;;2.17;;
45136;SDS011;30894;51.740;19.498;2022-09-03T17:26:30;2.78;;;1.50;;
45136;SDS011;30894;51.740;19.498;2022-09-03T17:29:29;5.88;;;2.00;;
45136;SDS011;30894;51.740;19.498;2022-09-03T17:41:07;2.75;;;1.55;;
45136;SDS011;30894;51.740;19.498;2022-09-03T17:43:59;3.17;;;1.52;;
45136;SDS011;30894;51.740;19.498;2022-09-03T17:46:59;1.85;;;1.50;;
45136;SDS011;30894;51.740;19.498;2022-09-03T17:49:33;3.38;;;1.90;;
45136;SDS011;30894;51.740;19.498;2022-09-03T17:55:14;3.80;;;1.75;;
45136;SDS011;30894;51.740;19.498;2022-09-03T17:57:46;3.85;;;2.20;;
45136;SDS011;30894;51.740;19.498;2022-09-03T18:00:24;6.13;;;2.42;;
45136;SDS011;30894;51.740;19.498;2022-09-03T18:05:59;7.22;;;2.75;;
45136;SDS011;30894;51.740;19.498;2022-09-03T18:08:51;7.93;;;3.15;;
45136;SDS011;30894;51.740;19.498;2022-09-03T18:14:19;7.93;;;3.80;;
45136;SDS011;30894;51.740;19.498;2022-09-03T18:16:55;12.25;;;4.30;;
45136;SDS011;30894;51.740;19.498;2022-09-03T18:19:47;6.15;;;2.85;;
45136;SDS011;30894;51.740;19.498;2022-09-03T18:23:00;5.70;;;2.38;;
45136;SDS011;30894;51.740;19.498;2022-09-03T18:26:07;6.63;;;2.00;;
45136;SDS011;30894;51.740;19.498;2022-09-03T18:31:56;2.78;;;1.55;;
45136;SDS011;30894;51.740;19.498;2022-09-03T18:34:40;3.92;;;1.60;;
45136;SDS011;30894;51.740;19.498;2022-09-03T18:37:26;8.25;;;2.05;;
45136;SDS011;30894;51.740;19.498;2022-09-03T18:40:19;4.47;;;1.95;;
45136;SDS011;30894;51.740;19.498;2022-09-03T18:43:13;9.43;;;3.13;;
45136;SDS011;30894;51.740;19.498;2022-09-03T18:49:39;7.80;;;2.28;;
45136;SDS011;30894;51.740;19.498;2022-09-03T18:55:50;4.95;;;2.30;;
45136;SDS011;30894;51.740;19.498;2022-09-03T19:02:24;4.88;;;2.08;;
45136;SDS011;30894;51.740;19.498;2022-09-03T19:15:23;6.32;;;2.70;;
45136;SDS011;30894;51.740;19.498;2022-09-03T19:22:11;6.07;;;2.97;;
45136;SDS011;30894;51.740;19.498;2022-09-03T19:25:10;5.90;;;2.67;;
45136;SDS011;30894;51.740;19.498;2022-09-03T19:37:26;3.75;;;2.15;;
45136;SDS011;30894;51.740;19.498;2022-09-03T19:47:04;7.13;;;2.95;;
45136;SDS011;30894;51.740;19.498;2022-09-03T19:50:08;7.00;;;3.70;;
45136;SDS011;30894;51.740;19.498;2022-09-03T19:53:09;10.95;;;4.00;;
45136;SDS011;30894;51.740;19.498;2022-09-03T19:56:02;10.87;;;3.87;;
45136;SDS011;30894;51.740;19.498;2022-09-03T19:58:56;17.20;;;5.40;;
45136;SDS011;30894;51.740;19.498;2022-09-03T20:01:45;19.53;;;6.63;;
45136;SDS011;30894;51.740;19.498;2022-09-03T20:04:32;18.80;;;6.32;;
45136;SDS011;30894;51.740;19.498;2022-09-03T20:07:24;13.27;;;4.15;;
45136;SDS011;30894;51.740;19.498;2022-09-03T20:10:10;10.63;;;3.90;;
45136;SDS011;30894;51.740;19.498;2022-09-03T20:27:03;10.27;;;4.75;;
45136;SDS011;30894;51.740;19.498;2022-09-03T20:35:45;7.38;;;2.92;;
45136;SDS011;30894;51.740;19.498;2022-09-03T20:41:16;8.35;;;3.88;;
45136;SDS011;30894;51.740;19.498;2022-09-03T20:55:57;8.85;;;3.35;;
45136;SDS011;30894;51.740;19.498;2022-09-03T21:01:08;11.60;;;3.80;;
45136;SDS011;30894;51.740;19.498;2022-09-03T21:06:52;9.00;;;3.15;;
45136;SDS011;30894;51.740;19.498;2022-09-03T21:24:19;14.70;;;5.45;;
45136;SDS011;30894;51.740;19.498;2022-09-03T21:27:02;8.63;;;5.05;;
45136;SDS011;30894;51.740;19.498;2022-09-03T21:29:39;10.90;;;4.68;;
45136;SDS011;30894;51.740;19.498;2022-09-03T21:32:22;8.15;;;3.42;;
45136;SDS011;30894;51.740;19.498;2022-09-03T21:37:53;5.55;;;2.45;;
45136;SDS011;30894;51.740;19.498;2022-09-03T21:40:25;6.30;;;2.88;;
45136;SDS011;30894;51.740;19.498;2022-09-03T21:43:12;4.93;;;2.58;;
45136;SDS011;30894;51.740;19.498;2022-09-03T21:46:02;4.88;;;2.50;;
45136;SDS011;30894;51.740;19.498;2022-09-03T21:48:38;10.07;;;2.53;;
45136;SDS011;30894;51.740;19.498;2022-09-03T21:51:32;4.80;;;2.80;;
45136;SDS011;30894;51.740;19.498;2022-09-03T21:54:32;5.72;;;3.50;;
45136;SDS011;30894;51.740;19.498;2022-09-03T21:57:17;11.25;;;4.05;;